sensor_id;sensor_type;location;lat;lon;timestamp;pressure;altitude;pressure_sealevel;temperature;humidity
69855;BME280;57146;48.140;16.304;2022-09-20T00:03:43;99456.84;;;10.46;75.17
69855;BME280;57146;48.140;16.304;2022-09-20T00:06:14;99454.22;;;10.46;74.87
69855;BME280;57146;48.140;16.304;2022-09-20T00:08:43;99460.25;;;10.47;74.44
69855;BME280;57146;48.140;16.304;2022-09-20T00:11:22;99457.13;;;10.45;74.71
69855;BME280;57146;48.140;16.304;2022-09-20T00:13:51;99462.97;;;10.42;74.40
69855;BME280;57146;48.140;16.304;2022-09-20T00:16:24;99450.41;;;10.39;74.65
69855;BME280;57146;48.140;16.304;2022-09-20T00:18:54;99460.72;;;10.35;75.44
69855;BME280;57146;48.140;16.304;2022-09-20T00:21:25;99461.22;;;10.37;75.22
69855;BME280;57146;48.140;16.304;2022-09-20T00:23:53;99455.00;;;10.33;75.25
69855;BME280;57146;48.140;16.304;2022-09-20T00:26:20;99448.06;;;10.37;75.14
69855;BME280;57146;48.140;16.304;2022-09-20T00:28:47;99448.25;;;10.27;75.53
69855;BME280;57146;48.140;16.304;2022-09-20T00:31:14;99445.63;;;10.27;75.56
69855;BME280;57146;48.140;16.304;2022-09-20T00:33:41;99445.41;;;10.23;75.56
69855;BME280;57146;48.140;16.304;2022-09-20T00:36:08;99448.81;;;10.24;75.62
69855;BME280;57146;48.140;16.304;2022-09-20T00:38:35;99444.88;;;10.26;75.14
69855;BME280;57146;48.140;16.304;2022-09-20T00:41:02;99434.88;;;10.23;75.46
69855;BME280;57146;48.140;16.304;2022-09-20T00:43:45;99442.00;;;10.23;75.29
69855;BME280;57146;48.140;16.304;2022-09-20T00:46:34;99437.03;;;10.21;75.42
69855;BME280;57146;48.140;16.304;2022-09-20T00:49:18;99433.13;;;10.19;75.27
69855;BME280;57146;48.140;16.304;2022-09-20T00:51:53;99438.59;;;10.22;75.30
69855;BME280;57146;48.140;16.304;2022-09-20T00:54:22;99443.66;;;10.19;75.28
69855;BME280;57146;48.140;16.304;2022-09-20T00:56:51;99439.19;;;10.19;75.44
69855;BME280;57146;48.140;16.304;2022-09-20T00:59:28;99439.94;;;10.20;75.14
69855;BME280;57146;48.140;16.304;2022-09-20T01:02:05;99446.75;;;10.21;75.41
69855;BME280;57146;48.140;16.304;2022-09-20T01:04:33;99438.41;;;10.19;75.60
69855;BME280;57146;48.140;16.304;2022-09-20T01:07:02;99444.44;;;10.19;75.71
69855;BME280;57146;48.140;16.304;2022-09-20T01:09:30;99440.25;;;10.18;75.98
69855;BME280;57146;48.140;16.304;2022-09-20T01:11:57;99430.78;;;10.17;76.09
69855;BME280;57146;48.140;16.304;2022-09-20T01:14:27;99433.41;;;10.17;76.34
69855;BME280;57146;48.140;16.304;2022-09-20T01:16:58;99428.16;;;10.17;76.44
69855;BME280;57146;48.140;16.304;2022-09-20T01:27:44;99421.84;;;10.18;76.59
69855;BME280;57146;48.140;16.304;2022-09-20T01:30:19;99422.63;;;10.19;76.16
69855;BME280;57146;48.140;16.304;2022-09-20T01:33:10;99426.03;;;10.19;76.01
69855;BME280;57146;48.140;16.304;2022-09-20T01:35:43;99426.53;;;10.21;75.68
69855;BME280;57146;48.140;16.304;2022-09-20T01:46:16;99429.63;;;10.23;75.27
69855;BME280;57146;48.140;16.304;2022-09-20T01:48:49;99425.13;;;10.24;75.53
69855;BME280;57146;48.140;16.304;2022-09-20T02:00:07;99419.59;;;10.12;76.42
69855;BME280;57146;48.140;16.304;2022-09-20T02:08:08;99431.59;;;10.04;77.02
69855;BME280;57146;48.140;16.304;2022-09-20T02:19:20;99427.09;;;10.04;77.37
69855;BME280;57146;48.140;16.304;2022-09-20T02:22:26;99418.63;;;10.07;77.02
69855;BME280;57146;48.140;16.304;2022-09-20T02:24:51;99425.06;;;10.01;77.65
69855;BME280;57146;48.140;16.304;2022-09-20T02:27:24;99434.50;;;10.02;76.85
69855;BME280;57146;48.140;16.304;2022-09-20T02:33:12;99423.69;;;10.04;76.61
69855;BME280;57146;48.140;16.304;2022-09-20T02:36:36;99426.31;;;10.04;76.57
69855;BME280;57146;48.140;16.304;2022-09-20T02:38:53;99431.97;;;9.97;76.88
69855;BME280;57146;48.140;16.304;2022-09-20T02:41:41;99429.53;;;10.01;76.69
69855;BME280;57146;48.140;16.304;2022-09-20T02:47:38;99441.13;;;10.00;77.03
69855;BME280;57146;48.140;16.304;2022-09-20T02:53:36;99444.34;;;9.97;78.03
69855;BME280;57146;48.140;16.304;2022-09-20T02:56:33;99448.53;;;9.98;78.37
69855;BME280;57146;48.140;16.304;2022-09-20T02:59:25;99447.38;;;10.04;78.54
69855;BME280;57146;48.140;16.304;2022-09-20T03:02:45;99449.22;;;10.03;78.71
69855;BME280;57146;48.140;16.304;2022-09-20T03:15:44;99448.63;;;9.93;79.87
69855;BME280;57146;48.140;16.304;2022-09-20T03:18:49;99444.91;;;9.94;79.71
69855;BME280;57146;48.140;16.304;2022-09-20T03:35:28;99442.28;;;9.94;79.85
69855;BME280;57146;48.140;16.304;2022-09-20T03:43:37;99463.91;;;9.91;80.00
69855;BME280;57146;48.140;16.304;2022-09-20T03:49:27;99456.59;;;9.88;80.12
69855;BME280;57146;48.140;16.304;2022-09-20T03:52:13;99469.47;;;9.89;79.88
69855;BME280;57146;48.140;16.304;2022-09-20T04:00:32;99463.28;;;9.80;80.52
69855;BME280;57146;48.140;16.304;2022-09-20T04:17:03;99488.19;;;9.69;82.11
69855;BME280;57146;48.140;16.304;2022-09-20T04:19:51;99483.31;;;9.62;82.28
69855;BME280;57146;48.140;16.304;2022-09-20T04:22:22;99487.56;;;9.58;82.57
69855;BME280;57146;48.140;16.304;2022-09-20T04:25:12;99481.44;;;9.63;81.87
69855;BME280;57146;48.140;16.304;2022-09-20T04:27:46;99487.56;;;9.58;82.32
69855;BME280;57146;48.140;16.304;2022-09-20T04:30:22;99489.34;;;9.63;81.26
69855;BME280;57146;48.140;16.304;2022-09-20T04:38:26;99491.34;;;9.52;81.40
69855;BME280;57146;48.140;16.304;2022-09-20T04:49:37;99505.97;;;9.39;82.46
69855;BME280;57146;48.140;16.304;2022-09-20T04:55:41;99520.47;;;9.55;81.22
69855;BME280;57146;48.140;16.304;2022-09-20T04:58:37;99512.09;;;9.53;81.48
69855;BME280;57146;48.140;16.304;2022-09-20T05:30:53;99532.97;;;9.45;82.98
69855;BME280;57146;48.140;16.304;2022-09-20T05:33:56;99531.34;;;9.49;83.04
69855;BME280;57146;48.140;16.304;2022-09-20T05:39:47;99554.06;;;9.58;83.00
69855;BME280;57146;48.140;16.304;2022-09-20T05:42:19;99548.59;;;9.55;82.98
69855;BME280;57146;48.140;16.304;2022-09-20T05:45:05;99554.63;;;9.55;83.79
69855;BME280;57146;48.140;16.304;2022-09-20T05:47:39;99552.00;;;9.55;83.83
69855;BME280;57146;48.140;16.304;2022-09-20T05:50:26;99551.53;;;9.53;84.43
69855;BME280;57146;48.140;16.304;2022-09-20T05:53:06;99554.06;;;9.58;83.66
69855;BME280;57146;48.140;16.304;2022-09-20T05:55:45;99554.34;;;9.57;84.16
69855;BME280;57146;48.140;16.304;2022-09-20T06:01:25;99570.91;;;9.57;84.40
69855;BME280;57146;48.140;16.304;2022-09-20T06:04:16;99569.81;;;9.58;84.72
69855;BME280;57146;48.140;16.304;2022-09-20T06:07:07;99577.16;;;9.62;84.33
69855;BME280;57146;48.140;16.304;2022-09-20T06:12:15;99585.31;;;9.60;84.19
69855;BME280;57146;48.140;16.304;2022-09-20T06:18:19;99589.22;;;9.63;84.75
69855;BME280;57146;48.140;16.304;2022-09-20T06:21:08;99590.28;;;9.62;84.32
69855;BME280;57146;48.140;16.304;2022-09-20T06:23:39;99588.44;;;9.62;85.16
69855;BME280;57146;48.140;16.304;2022-09-20T06:26:13;99588.66;;;9.66;84.76
69855;BME280;57146;48.140;16.304;2022-09-20T06:28:46;99591.56;;;9.64;84.75
69855;BME280;57146;48.140;16.304;2022-09-20T06:31:15;99588.66;;;9.66;85.09
69855;BME280;57146;48.140;16.304;2022-09-20T06:33:54;99580.41;;;9.72;84.49
69855;BME280;57146;48.140;16.304;2022-09-20T06:41:43;99583.66;;;9.83;84.62
69855;BME280;57146;48.140;16.304;2022-09-20T06:44:10;99576.19;;;9.90;84.50
69855;BME280;57146;48.140;16.304;2022-09-20T06:46:37;99570.72;;;9.87;84.06
69855;BME280;57146;48.140;16.304;2022-09-20T06:49:04;99584.34;;;9.89;84.46
69855;BME280;57146;48.140;16.304;2022-09-20T06:51:36;99593.25;;;9.93;83.82
69855;BME280;57146;48.140;16.304;2022-09-20T06:54:04;99590.63;;;9.93;83.48
69855;BME280;57146;48.140;16.304;2022-09-20T06:56:34;99587.69;;;9.94;83.44
69855;BME280;57146;48.140;16.304;2022-09-20T06:59:05;99596.00;;;10.01;82.72
69855;BME280;57146;48.140;16.304;2022-09-20T07:01:32;99598.53;;;10.06;83.04
69855;BME280;57146;48.140;16.304;2022-09-20T07:03:59;99598.47;;;10.12;82.57
69855;BME280;57146;48.140;16.304;2022-09-20T07:06:25;99607.69;;;10.09;83.16
69855;BME280;57146;48.140;16.304;2022-09-20T07:08:52;99603.22;;;10.10;83.49
69855;BME280;57146;48.140;16.304;2022-09-20T07:11:19;99601.56;;;10.14;82.34
69855;BME280;57146;48.140;16.304;2022-09-20T07:13:50;99602.59;;;10.18;81.86
69855;BME280;57146;48.140;16.304;2022-09-20T07:16:17;99604.41;;;10.17;82.53
69855;BME280;57146;48.140;16.304;2022-09-20T07:18:45;99605.22;;;10.18;82.90
69855;BME280;57146;48.140;16.304;2022-09-20T07:21:13;99605.91;;;10.23;82.67
69855;BME280;57146;48.140;16.304;2022-09-20T07:23:41;99613.00;;;10.23;82.52
69855;BME280;57146;48.140;16.304;2022-09-20T07:26:25;99610.06;;;10.24;81.78
69855;BME280;57146;48.140;16.304;2022-09-20T07:28:53;99614.56;;;10.24;82.80
69855;BME280;57146;48.140;16.304;2022-09-20T07:31:22;99612.22;;;10.22;82.41
69855;BME280;57146;48.140;16.304;2022-09-20T07:33:50;99616.38;;;10.28;82.07
69855;BME280;57146;48.140;16.304;2022-09-20T07:36:17;99621.91;;;10.27;82.88
69855;BME280;57146;48.140;16.304;2022-09-20T07:38:51;99622.63;;;10.33;82.68
69855;BME280;57146;48.140;16.304;2022-09-20T07:41:19;99628.47;;;10.29;83.55
69855;BME280;57146;48.140;16.304;2022-09-20T07:43:46;99628.47;;;10.29;82.87
69855;BME280;57146;48.140;16.304;2022-09-20T07:46:13;99625.31;;;10.27;82.55
69855;BME280;57146;48.140;16.304;2022-09-20T07:48:41;99634.28;;;10.26;83.11
69855;BME280;57146;48.140;16.304;2022-09-20T07:51:10;99629.03;;;10.26;83.01
69855;BME280;57146;48.140;16.304;2022-09-20T07:53:39;99633.72;;;10.29;83.09
69855;BME280;57146;48.140;16.304;2022-09-20T07:56:11;99632.47;;;10.41;82.29
69855;BME280;57146;48.140;16.304;2022-09-20T07:58:39;99628.41;;;10.48;82.01
69855;BME280;57146;48.140;16.304;2022-09-20T08:01:08;99630.97;;;10.53;81.43
69855;BME280;57146;48.140;16.304;2022-09-20T08:03:36;99627.94;;;10.60;81.76
69855;BME280;57146;48.140;16.304;2022-09-20T08:06:08;99625.31;;;10.74;81.24
69855;BME280;57146;48.140;16.304;2022-09-20T08:08:39;99631.09;;;10.90;80.13
69855;BME280;57146;48.140;16.304;2022-09-20T08:11:11;99630.19;;;10.94;80.00
69855;BME280;57146;48.140;16.304;2022-09-20T08:13:45;99623.28;;;10.98;79.80
69855;BME280;57146;48.140;16.304;2022-09-20T08:16:39;99632.53;;;11.10;79.28
69855;BME280;57146;48.140;16.304;2022-09-20T08:19:07;99628.84;;;11.11;77.12
69855;BME280;57146;48.140;16.304;2022-09-20T08:21:34;99633.53;;;11.14;78.34
69855;BME280;57146;48.140;16.304;2022-09-20T08:24:01;99631.28;;;11.21;78.21
69855;BME280;57146;48.140;16.304;2022-09-20T08:26:30;99631.94;;;11.26;77.35
69855;BME280;57146;48.140;16.304;2022-09-20T08:28:58;99632.09;;;11.44;78.20
69855;BME280;57146;48.140;16.304;2022-09-20T08:31:28;99632.41;;;11.42;77.60
69855;BME280;57146;48.140;16.304;2022-09-20T08:33:55;99632.66;;;11.55;76.89
69855;BME280;57146;48.140;16.304;2022-09-20T08:36:24;99633.44;;;11.55;76.60
69855;BME280;57146;48.140;16.304;2022-09-20T08:38:52;99630.22;;;11.58;76.08
69855;BME280;57146;48.140;16.304;2022-09-20T08:41:45;99631.69;;;11.64;76.73
69855;BME280;57146;48.140;16.304;2022-09-20T08:44:30;99630.50;;;11.70;75.92
69855;BME280;57146;48.140;16.304;2022-09-20T08:47:05;99629.47;;;11.80;76.36
69855;BME280;57146;48.140;16.304;2022-09-20T08:49:33;99626.34;;;11.92;75.45
69855;BME280;57146;48.140;16.304;2022-09-20T08:52:01;99622.31;;;11.94;75.42
69855;BME280;57146;48.140;16.304;2022-09-20T08:54:33;99620.75;;;11.93;72.87
69855;BME280;57146;48.140;16.304;2022-09-20T08:57:02;99622.50;;;11.98;73.85
69855;BME280;57146;48.140;16.304;2022-09-20T08:59:31;99615.47;;;11.93;72.33
69855;BME280;57146;48.140;16.304;2022-09-20T09:01:58;99624.84;;;12.00;72.56
69855;BME280;57146;48.140;16.304;2022-09-20T09:04:34;99631.84;;;12.04;70.78
69855;BME280;57146;48.140;16.304;2022-09-20T09:07:02;99629.72;;;12.06;70.29
69855;BME280;57146;48.140;16.304;2022-09-20T09:09:29;99616.03;;;12.04;72.13
69855;BME280;57146;48.140;16.304;2022-09-20T09:12:04;99616.81;;;12.05;70.56
69855;BME280;57146;48.140;16.304;2022-09-20T09:14:33;99616.81;;;12.05;71.29
69855;BME280;57146;48.140;16.304;2022-09-20T09:17:00;99609.56;;;12.10;71.62
69855;BME280;57146;48.140;16.304;2022-09-20T09:19:32;99601.50;;;12.15;72.47
69855;BME280;57146;48.140;16.304;2022-09-20T09:22:08;99614.41;;;12.17;70.56
69855;BME280;57146;48.140;16.304;2022-09-20T09:24:35;99612.06;;;12.15;69.40
69855;BME280;57146;48.140;16.304;2022-09-20T09:27:17;99601.84;;;12.22;70.16
69855;BME280;57146;48.140;16.304;2022-09-20T09:29:51;99603.16;;;12.34;69.63
69855;BME280;57146;48.140;16.304;2022-09-20T09:32:26;99602.38;;;12.33;69.72
69855;BME280;57146;48.140;16.304;2022-09-20T09:34:54;99601.75;;;12.28;68.12
69855;BME280;57146;48.140;16.304;2022-09-20T09:37:27;99595.38;;;12.29;69.17
69855;BME280;57146;48.140;16.304;2022-09-20T09:40:12;99593.25;;;12.39;68.34
69855;BME280;57146;48.140;16.304;2022-09-20T09:42:47;99591.72;;;12.47;68.10
69855;BME280;57146;48.140;16.304;2022-09-20T09:45:36;99587.41;;;12.51;68.19
69855;BME280;57146;48.140;16.304;2022-09-20T09:50:54;99591.53;;;12.35;67.49
69855;BME280;57146;48.140;16.304;2022-09-20T09:53:32;99589.22;;;12.11;67.50
69855;BME280;57146;48.140;16.304;2022-09-20T09:59:00;99590.97;;;11.93;69.24
69855;BME280;57146;48.140;16.304;2022-09-20T10:01:50;99594.41;;;11.80;70.08
69855;BME280;57146;48.140;16.304;2022-09-20T10:07:03;99597.00;;;11.71;71.29
69855;BME280;57146;48.140;16.304;2022-09-20T10:18:11;99573.59;;;11.92;73.30
69855;BME280;57146;48.140;16.304;2022-09-20T10:23:54;99564.22;;;12.08;70.75
69855;BME280;57146;48.140;16.304;2022-09-20T10:32:27;99570.06;;;12.67;67.95
69855;BME280;57146;48.140;16.304;2022-09-20T10:52:05;99582.19;;;11.11;73.65
69855;BME280;57146;48.140;16.304;2022-09-20T11:00:21;99598.91;;;10.79;77.28
69855;BME280;57146;48.140;16.304;2022-09-20T11:08:14;99592.66;;;10.61;78.11
69855;BME280;57146;48.140;16.304;2022-09-20T11:10:48;99584.81;;;10.56;78.11
69855;BME280;57146;48.140;16.304;2022-09-20T11:16:09;99586.41;;;10.57;78.20
69855;BME280;57146;48.140;16.304;2022-09-20T11:18:48;99584.75;;;10.61;79.99
69855;BME280;57146;48.140;16.304;2022-09-20T11:21:25;99598.59;;;10.67;79.98
69855;BME280;57146;48.140;16.304;2022-09-20T11:26:40;99605.44;;;10.82;81.92
69855;BME280;57146;48.140;16.304;2022-09-20T11:29:38;99613.03;;;10.83;81.76
69855;BME280;57146;48.140;16.304;2022-09-20T11:34:53;99624.72;;;10.77;75.28
69855;BME280;57146;48.140;16.304;2022-09-20T11:37:25;99619.44;;;10.63;75.49
69855;BME280;57146;48.140;16.304;2022-09-20T11:39:54;99625.97;;;10.52;76.11
69855;BME280;57146;48.140;16.304;2022-09-20T11:42:26;99624.28;;;10.42;77.48
69855;BME280;57146;48.140;16.304;2022-09-20T11:44:54;99617.56;;;10.36;78.85
69855;BME280;57146;48.140;16.304;2022-09-20T11:47:25;99613.75;;;10.28;79.01
69855;BME280;57146;48.140;16.304;2022-09-20T11:56:15;99608.13;;;10.16;82.26
69855;BME280;57146;48.140;16.304;2022-09-20T11:58:46;99616.56;;;10.13;82.62
69855;BME280;57146;48.140;16.304;2022-09-20T12:01:22;99616.00;;;10.16;82.50
69855;BME280;57146;48.140;16.304;2022-09-20T12:03:57;99619.34;;;10.22;83.46
69855;BME280;57146;48.140;16.304;2022-09-20T12:06:46;99610.88;;;10.25;82.73
69855;BME280;57146;48.140;16.304;2022-09-20T12:09:27;99614.53;;;10.29;81.63
69855;BME280;57146;48.140;16.304;2022-09-20T12:11:55;99611.22;;;10.37;83.07
69855;BME280;57146;48.140;16.304;2022-09-20T12:14:25;99635.50;;;10.48;84.60
69855;BME280;57146;48.140;16.304;2022-09-20T12:16:54;99635.25;;;10.49;84.84
69855;BME280;57146;48.140;16.304;2022-09-20T12:24:26;99633.50;;;10.59;85.27
69855;BME280;57146;48.140;16.304;2022-09-20T12:26:58;99642.47;;;10.58;84.93
69855;BME280;57146;48.140;16.304;2022-09-20T12:31:54;99641.38;;;10.59;86.11
69855;BME280;57146;48.140;16.304;2022-09-20T12:39:26;99631.19;;;10.71;83.89
69855;BME280;57146;48.140;16.304;2022-09-20T12:42:02;99630.50;;;10.79;82.49
69855;BME280;57146;48.140;16.304;2022-09-20T12:47:13;99631.56;;;10.78;81.14
69855;BME280;57146;48.140;16.304;2022-09-20T12:52:21;99629.09;;;10.54;82.36
69855;BME280;57146;48.140;16.304;2022-09-20T12:54:52;99629.06;;;10.40;81.87
69855;BME280;57146;48.140;16.304;2022-09-20T12:57:28;99626.66;;;10.25;82.25
69855;BME280;57146;48.140;16.304;2022-09-20T12:59:58;99630.25;;;10.15;82.72
69855;BME280;57146;48.140;16.304;2022-09-20T13:02:56;99631.53;;;10.18;83.07
69855;BME280;57146;48.140;16.304;2022-09-20T13:05:32;99629.94;;;10.17;83.72
69855;BME280;57146;48.140;16.304;2022-09-20T13:08:12;99625.84;;;10.11;82.60
69855;BME280;57146;48.140;16.304;2022-09-20T13:10:47;99623.84;;;10.02;83.39
69855;BME280;57146;48.140;16.304;2022-09-20T13:15:54;99617.25;;;10.05;83.10
69855;BME280;57146;48.140;16.304;2022-09-20T13:18:22;99616.94;;;10.06;82.27
69855;BME280;57146;48.140;16.304;2022-09-20T13:20:50;99615.91;;;10.07;82.39
69855;BME280;57146;48.140;16.304;2022-09-20T13:23:22;99627.00;;;10.04;82.65
69855;BME280;57146;48.140;16.304;2022-09-20T13:25:52;99623.59;;;10.04;82.74
69855;BME280;57146;48.140;16.304;2022-09-20T13:28:28;99618.31;;;10.04;82.65
69855;BME280;57146;48.140;16.304;2022-09-20T13:33:46;99615.06;;;9.93;82.19
69855;BME280;57146;48.140;16.304;2022-09-20T13:36:13;99613.69;;;9.96;82.83
69855;BME280;57146;48.140;16.304;2022-09-20T13:38:41;99619.25;;;9.94;83.06
69855;BME280;57146;48.140;16.304;2022-09-20T13:41:09;99616.91;;;9.93;82.85
69855;BME280;57146;48.140;16.304;2022-09-20T13:43:40;99610.66;;;9.89;81.63
69855;BME280;57146;48.140;16.304;2022-09-20T13:46:10;99613.94;;;9.80;80.49
69855;BME280;57146;48.140;16.304;2022-09-20T13:48:38;99618.00;;;9.73;81.37
69855;BME280;57146;48.140;16.304;2022-09-20T13:51:16;99611.75;;;9.69;80.64
69855;BME280;57146;48.140;16.304;2022-09-20T13:53:43;99609.38;;;9.67;80.41
69855;BME280;57146;48.140;16.304;2022-09-20T13:56:24;99613.09;;;9.66;80.63
69855;BME280;57146;48.140;16.304;2022-09-20T13:58:53;99608.03;;;9.70;80.11
69855;BME280;57146;48.140;16.304;2022-09-20T14:01:28;99597.88;;;9.82;80.15
69855;BME280;57146;48.140;16.304;2022-09-20T14:04:04;99611.06;;;9.96;81.23
69855;BME280;57146;48.140;16.304;2022-09-20T14:06:32;99602.66;;;10.13;79.55
69855;BME280;57146;48.140;16.304;2022-09-20T14:09:02;99600.09;;;10.26;79.50
69855;BME280;57146;48.140;16.304;2022-09-20T14:11:37;99595.34;;;10.42;77.82
69855;BME280;57146;48.140;16.304;2022-09-20T14:14:05;99605.59;;;10.58;78.03
69855;BME280;57146;48.140;16.304;2022-09-20T14:16:33;99599.09;;;10.69;76.44
69855;BME280;57146;48.140;16.304;2022-09-20T14:19:04;99594.59;;;10.83;76.48
69855;BME280;57146;48.140;16.304;2022-09-20T14:21:33;99604.25;;;10.88;78.08
69855;BME280;57146;48.140;16.304;2022-09-20T14:24:22;99596.47;;;10.96;77.17
69855;BME280;57146;48.140;16.304;2022-09-20T14:27:15;99593.63;;;11.07;77.16
69855;BME280;57146;48.140;16.304;2022-09-20T14:29:50;99593.00;;;11.10;76.01
69855;BME280;57146;48.140;16.304;2022-09-20T14:32:21;99604.63;;;11.09;75.49
69855;BME280;57146;48.140;16.304;2022-09-20T14:35:02;99606.19;;;11.10;76.51
69855;BME280;57146;48.140;16.304;2022-09-20T14:37:32;99601.81;;;11.05;75.67
69855;BME280;57146;48.140;16.304;2022-09-20T14:40:13;99598.28;;;11.10;75.15
69855;BME280;57146;48.140;16.304;2022-09-20T14:42:44;99608.03;;;11.09;73.85
69855;BME280;57146;48.140;16.304;2022-09-20T14:50:40;99615.03;;;11.41;74.71
69855;BME280;57146;48.140;16.304;2022-09-20T14:58:31;99623.88;;;11.59;73.43
69855;BME280;57146;48.140;16.304;2022-09-20T15:01:04;99624.00;;;11.54;73.98
69855;BME280;57146;48.140;16.304;2022-09-20T15:03:41;99626.13;;;11.52;71.56
69855;BME280;57146;48.140;16.304;2022-09-20T15:06:12;99638.34;;;11.48;74.38
69855;BME280;57146;48.140;16.304;2022-09-20T15:08:39;99646.38;;;11.43;74.55
69855;BME280;57146;48.140;16.304;2022-09-20T15:11:16;99654.00;;;11.31;75.39
69855;BME280;57146;48.140;16.304;2022-09-20T15:13:44;99650.78;;;11.20;76.77
69855;BME280;57146;48.140;16.304;2022-09-20T15:16:16;99654.41;;;11.10;77.22
69855;BME280;57146;48.140;16.304;2022-09-20T15:18:44;99662.00;;;10.98;79.88
69855;BME280;57146;48.140;16.304;2022-09-20T15:21:11;99671.16;;;10.87;78.66
69855;BME280;57146;48.140;16.304;2022-09-20T15:23:38;99675.72;;;10.81;79.27
69855;BME280;57146;48.140;16.304;2022-09-20T15:26:06;99676.13;;;10.74;80.14
69855;BME280;57146;48.140;16.304;2022-09-20T15:28:33;99663.16;;;10.64;80.66
69855;BME280;57146;48.140;16.304;2022-09-20T15:31:00;99671.78;;;10.51;83.51
69855;BME280;57146;48.140;16.304;2022-09-20T15:33:29;99671.38;;;10.44;80.05
69855;BME280;57146;48.140;16.304;2022-09-20T15:35:57;99672.13;;;10.30;79.70
69855;BME280;57146;48.140;16.304;2022-09-20T15:38:24;99671.66;;;10.23;81.00
69855;BME280;57146;48.140;16.304;2022-09-20T15:40:51;99671.25;;;10.16;80.74
69855;BME280;57146;48.140;16.304;2022-09-20T15:43:21;99671.41;;;10.06;81.06
69855;BME280;57146;48.140;16.304;2022-09-20T15:45:53;99683.13;;;9.95;82.53
69855;BME280;57146;48.140;16.304;2022-09-20T15:48:26;99695.88;;;9.88;83.78
69855;BME280;57146;48.140;16.304;2022-09-20T15:51:00;99693.09;;;9.79;85.51
69855;BME280;57146;48.140;16.304;2022-09-20T15:53:38;99696.84;;;9.73;84.51
69855;BME280;57146;48.140;16.304;2022-09-20T15:56:19;99698.91;;;9.76;83.73
69855;BME280;57146;48.140;16.304;2022-09-20T15:58:49;99690.81;;;9.72;84.50
69855;BME280;57146;48.140;16.304;2022-09-20T16:01:17;99702.88;;;9.73;84.47
69855;BME280;57146;48.140;16.304;2022-09-20T16:03:45;99702.97;;;9.68;85.12
69855;BME280;57146;48.140;16.304;2022-09-20T16:06:12;99701.59;;;9.71;83.58
69855;BME280;57146;48.140;16.304;2022-09-20T16:08:41;99695.28;;;9.72;82.48
69855;BME280;57146;48.140;16.304;2022-09-20T16:11:11;99707.72;;;9.66;82.87
69855;BME280;57146;48.140;16.304;2022-09-20T16:13:38;99713.03;;;9.61;82.60
69855;BME280;57146;48.140;16.304;2022-09-20T16:16:07;99703.66;;;9.55;81.23
69855;BME280;57146;48.140;16.304;2022-09-20T16:18:37;99699.03;;;9.47;81.24
69855;BME280;57146;48.140;16.304;2022-09-20T16:21:06;99693.59;;;9.38;82.47
69855;BME280;57146;48.140;16.304;2022-09-20T16:23:33;99692.25;;;9.41;82.33
69855;BME280;57146;48.140;16.304;2022-09-20T16:26:00;99688.06;;;9.40;82.84
69855;BME280;57146;48.140;16.304;2022-09-20T16:28:26;99687.84;;;9.36;82.84
69855;BME280;57146;48.140;16.304;2022-09-20T16:30:57;99696.56;;;9.31;83.95
69855;BME280;57146;48.140;16.304;2022-09-20T16:33:25;99690.81;;;9.29;84.71
69855;BME280;57146;48.140;16.304;2022-09-20T16:35:52;99687.97;;;9.26;85.09
69855;BME280;57146;48.140;16.304;2022-09-20T16:38:18;99689.81;;;9.25;85.29
69855;BME280;57146;48.140;16.304;2022-09-20T16:40:49;99692.44;;;9.25;85.49
69855;BME280;57146;48.140;16.304;2022-09-20T16:43:16;99697.97;;;9.24;85.45
69855;BME280;57146;48.140;16.304;2022-09-20T16:45:43;99709.56;;;9.18;85.40
69855;BME280;57146;48.140;16.304;2022-09-20T16:48:10;99710.94;;;9.15;85.71
69855;BME280;57146;48.140;16.304;2022-09-20T16:50:37;99713.34;;;9.11;84.86
69855;BME280;57146;48.140;16.304;2022-09-20T16:53:04;99716.75;;;9.12;84.78
69855;BME280;57146;48.140;16.304;2022-09-20T16:55:30;99714.59;;;9.14;83.76
69855;BME280;57146;48.140;16.304;2022-09-20T16:57:57;99725.91;;;9.15;83.96
69855;BME280;57146;48.140;16.304;2022-09-20T17:00:24;99717.81;;;9.11;84.32
69855;BME280;57146;48.140;16.304;2022-09-20T17:02:51;99724.09;;;9.10;84.28
69855;BME280;57146;48.140;16.304;2022-09-20T17:05:17;99720.44;;;9.11;84.38
69855;BME280;57146;48.140;16.304;2022-09-20T17:07:44;99734.38;;;9.06;84.82
69855;BME280;57146;48.140;16.304;2022-09-20T17:10:11;99738.13;;;9.00;85.08
69855;BME280;57146;48.140;16.304;2022-09-20T17:12:38;99743.66;;;8.99;85.42
69855;BME280;57146;48.140;16.304;2022-09-20T17:15:05;99744.97;;;8.96;84.90
69855;BME280;57146;48.140;16.304;2022-09-20T17:17:32;99744.25;;;8.91;85.09
69855;BME280;57146;48.140;16.304;2022-09-20T17:19:59;99751.63;;;8.88;85.23
69855;BME280;57146;48.140;16.304;2022-09-20T17:22:25;99752.16;;;8.85;85.09
69855;BME280;57146;48.140;16.304;2022-09-20T17:24:52;99758.53;;;8.79;85.52
69855;BME280;57146;48.140;16.304;2022-09-20T17:27:19;99761.72;;;8.76;85.71
69855;BME280;57146;48.140;16.304;2022-09-20T17:29:46;99768.03;;;8.75;85.02
69855;BME280;57146;48.140;16.304;2022-09-20T17:32:13;99775.91;;;8.75;85.49
69855;BME280;57146;48.140;16.304;2022-09-20T17:34:40;99781.16;;;8.75;85.22
69855;BME280;57146;48.140;16.304;2022-09-20T17:37:06;99790.59;;;8.76;85.10
69855;BME280;57146;48.140;16.304;2022-09-20T17:39:33;99781.94;;;8.76;86.31
69855;BME280;57146;48.140;16.304;2022-09-20T17:42:00;99783.72;;;8.80;85.74
69855;BME280;57146;48.140;16.304;2022-09-20T17:44:30;99781.63;;;8.82;84.86
69855;BME280;57146;48.140;16.304;2022-09-20T17:46:57;99784.25;;;8.82;85.46
69855;BME280;57146;48.140;16.304;2022-09-20T17:49:24;99787.66;;;8.83;85.52
69855;BME280;57146;48.140;16.304;2022-09-20T17:51:53;99787.34;;;8.84;85.79
69855;BME280;57146;48.140;16.304;2022-09-20T17:54:21;99786.28;;;8.85;83.83